Luna, Louisiana
Current Conditions -  °F | °C
As of 9:53 AM on Tuesday 21 Oct 2014 (Local Time) from KMLU Reporting Station
Overcast Overcast  
Wind Chill: 65°   Ceiling: 4600
Heat Index: 65°   Visibility: 10mi
Dew Point: 58°   Wind: 0mph
Humidity: 78%   Direction: NA
Pressure: 30.13"   Gusts: NA
Location:  32.3932°N, 92.2204°W
Report Text: KMLU 211453Z 00000KT 10SM OVC046 18/14 A3013 RMK AO2 SLP202 T01830144 53015
Loading
Personal Weather Stations






























Interactive Weather Map
Tropical Storm Tracking
New forecast layout! Learn more

10-Day Weather Forecast

Advertisements
Track Severe Weather on mobile